createdAt,value
2023-03-21T00:00:31.963Z,100.00
2023-03-21T00:02:58.525Z,100.00
2023-03-21T00:05:25.094Z,100.00
2023-03-21T00:07:52.007Z,100.00
2023-03-21T00:10:29.749Z,100.00
2023-03-21T00:13:05.782Z,100.00
2023-03-21T00:15:42.638Z,100.00
2023-03-21T00:18:15.962Z,100.00
2023-03-21T00:20:47.462Z,100.00
2023-03-21T00:23:13.985Z,100.00
2023-03-21T00:25:40.492Z,100.00
2023-03-21T00:28:08.588Z,100.00
2023-03-21T00:30:35.480Z,100.00
2023-03-21T00:33:08.936Z,100.00
2023-03-21T00:36:06.418Z,100.00
2023-03-21T00:38:34.211Z,100.00
2023-03-21T00:41:04.660Z,100.00
2023-03-21T00:43:34.205Z,100.00
2023-03-21T00:46:00.897Z,100.00
2023-03-21T00:52:40.578Z,100.00
2023-03-21T00:55:08.182Z,100.00
2023-03-21T00:57:39.274Z,100.00
2023-03-21T01:00:08.014Z,100.00
2023-03-21T01:02:34.554Z,100.00
2023-03-21T01:05:01.117Z,100.00
2023-03-21T01:10:08.056Z,100.00
2023-03-21T01:12:34.569Z,100.00
2023-03-21T01:15:01.070Z,100.00
2023-03-21T01:17:27.576Z,100.00
2023-03-21T01:19:54.120Z,100.00
2023-03-21T01:23:09.280Z,100.00
2023-03-21T01:25:35.986Z,100.00
2023-03-21T01:28:02.842Z,100.00
2023-03-21T01:30:33.925Z,100.00
2023-03-21T01:33:03.475Z,100.00
2023-03-21T01:35:40.830Z,100.00
2023-03-21T01:38:11.539Z,100.00
2023-03-21T01:40:38.230Z,100.00
2023-03-21T01:43:04.940Z,100.00
2023-03-21T01:45:50.512Z,100.00
2023-03-21T01:48:17.661Z,100.00
2023-03-21T01:50:44.309Z,100.00
2023-03-21T01:55:13.347Z,100.00
2023-03-21T01:57:58.542Z,100.00
2023-03-21T02:00:31.872Z,100.00
2023-03-21T02:03:52.287Z,100.00
2023-03-21T02:06:31.881Z,100.00
2023-03-21T02:09:00.830Z,100.00
2023-03-21T02:11:29.887Z,100.00
2023-03-21T02:14:06.373Z,100.00
2023-03-21T02:16:52.111Z,100.00
2023-03-21T02:19:32.890Z,100.00
2023-03-21T02:22:05.649Z,100.00
2023-03-21T02:24:32.515Z,100.00
2023-03-21T02:27:10.373Z,100.00
2023-03-21T02:30:45.587Z,100.00
2023-03-21T02:33:20.371Z,100.00
2023-03-21T02:35:56.719Z,100.00
2023-03-21T02:38:31.016Z,100.00
2023-03-21T02:40:57.521Z,100.00
2023-03-21T02:44:06.695Z,100.00
2023-03-21T02:46:48.993Z,100.00
2023-03-21T02:49:27.826Z,100.00
2023-03-21T02:53:13.283Z,100.00
2023-03-21T02:55:42.508Z,100.00
2023-03-21T02:58:13.414Z,100.00
2023-03-21T03:00:42.901Z,100.00
2023-03-21T03:03:14.110Z,100.00
2023-03-21T03:05:48.167Z,100.00
2023-03-21T03:09:02.195Z,100.00
2023-03-21T03:11:29.493Z,100.00
2023-03-21T03:14:21.248Z,100.00
2023-03-21T03:16:52.217Z,100.00
2023-03-21T03:19:27.372Z,100.00
2023-03-21T03:21:59.626Z,100.00
2023-03-21T03:25:12.607Z,100.00
2023-03-21T03:27:44.997Z,100.00
2023-03-21T03:30:13.135Z,100.00
2023-03-21T03:32:47.526Z,100.00
2023-03-21T03:35:15.413Z,100.00
2023-03-21T03:37:42.331Z,100.00
2023-03-21T03:40:11.889Z,100.00
2023-03-21T03:42:42.119Z,100.00
2023-03-21T03:45:10.031Z,100.00
2023-03-21T03:47:57.653Z,100.00
2023-03-21T03:50:24.348Z,100.00
2023-03-21T03:53:09.920Z,100.00
2023-03-21T03:55:43.638Z,100.00
2023-03-21T03:58:21.592Z,100.00
2023-03-21T04:00:50.799Z,100.00
2023-03-21T04:03:18.793Z,100.00
2023-03-21T04:05:48.045Z,100.00
2023-03-21T04:08:15.562Z,100.00
2023-03-21T04:10:42.888Z,100.00
2023-03-21T04:13:09.780Z,100.00
2023-03-21T04:15:36.408Z,100.00
2023-03-21T04:18:03.419Z,100.00
2023-03-21T04:20:36.645Z,100.00
2023-03-21T04:23:04.044Z,100.00
2023-03-21T04:25:34.132Z,100.00
2023-03-21T04:28:00.965Z,100.00
2023-03-21T04:30:27.493Z,100.00
2023-03-21T04:33:01.221Z,100.00
2023-03-21T04:35:28.525Z,100.00
2023-03-21T04:37:55.284Z,100.00
2023-03-21T04:40:21.942Z,100.00
2023-03-21T04:42:48.869Z,100.00
2023-03-21T04:45:15.885Z,100.00
2023-03-21T04:47:42.945Z,100.00
2023-03-21T04:50:10.788Z,100.00
2023-03-21T04:52:37.295Z,100.00
2023-03-21T04:55:03.956Z,100.00
2023-03-21T04:57:30.537Z,100.00
2023-03-21T04:59:57.083Z,100.00
2023-03-21T05:02:23.595Z,100.00
2023-03-21T05:04:50.293Z,100.00
2023-03-21T05:07:16.802Z,100.00
2023-03-21T05:09:43.474Z,100.00
2023-03-21T05:14:08.536Z,100.00
2023-03-21T05:16:36.556Z,100.00
2023-03-21T05:19:03.940Z,100.00
2023-03-21T05:21:41.795Z,100.00
2023-03-21T05:24:12.300Z,100.00
2023-03-21T05:26:39.705Z,100.00
2023-03-21T05:29:07.046Z,100.00
2023-03-21T05:31:33.582Z,100.00
2023-03-21T05:34:00.437Z,100.00
2023-03-21T05:36:26.986Z,100.00
2023-03-21T05:38:53.526Z,100.00
2023-03-21T05:41:21.479Z,100.00
2023-03-21T05:43:48.095Z,100.00
2023-03-21T05:48:42.324Z,100.00
2023-03-21T05:51:08.916Z,100.00
2023-03-21T05:53:35.487Z,100.00
2023-03-21T05:57:13.233Z,100.00
2023-03-21T05:59:39.851Z,100.00
2023-03-21T06:02:06.387Z,100.00
2023-03-21T06:04:32.949Z,100.00
2023-03-21T06:06:59.543Z,100.00
2023-03-21T06:10:58.209Z,100.00
2023-03-21T06:13:24.750Z,100.00
2023-03-21T06:15:51.290Z,100.00
2023-03-21T06:18:18.054Z,100.00
2023-03-21T06:20:44.899Z,100.00
2023-03-21T06:23:11.503Z,100.00
2023-03-21T06:25:38.231Z,100.00
2023-03-21T06:28:04.871Z,100.00
2023-03-21T06:33:03.129Z,100.00
2023-03-21T06:35:29.641Z,100.00
2023-03-21T06:37:58.512Z,100.00
2023-03-21T06:40:25.052Z,100.00
2023-03-21T06:42:51.667Z,100.00
2023-03-21T06:45:19.771Z,100.00
2023-03-21T06:47:46.713Z,100.00
2023-03-21T06:50:13.240Z,100.00
2023-03-21T06:52:39.873Z,100.00
2023-03-21T06:55:06.650Z,100.00
2023-03-21T06:57:33.181Z,100.00
2023-03-21T06:59:59.724Z,94.18
2023-03-21T07:02:26.556Z,95.77
2023-03-21T07:04:53.769Z,94.77
2023-03-21T07:07:20.592Z,94.54
2023-03-21T07:09:47.099Z,94.47
2023-03-21T07:12:13.612Z,93.09
2023-03-21T07:14:40.114Z,92.57
2023-03-21T07:17:06.599Z,93.39
2023-03-21T07:19:33.182Z,91.74
2023-03-21T07:22:01.577Z,92.20
2023-03-21T07:24:28.137Z,92.13
2023-03-21T07:26:54.698Z,88.74
2023-03-21T07:29:23.257Z,87.97
2023-03-21T07:31:49.845Z,88.81
2023-03-21T07:34:17.098Z,86.44
2023-03-21T07:36:43.631Z,87.48
2023-03-21T07:39:10.160Z,85.42
2023-03-21T07:41:36.713Z,83.49
2023-03-21T07:44:03.763Z,81.09
2023-03-21T07:46:30.443Z,81.71
2023-03-21T07:48:56.981Z,80.63
2023-03-21T07:51:23.535Z,80.79
2023-03-21T07:53:50.192Z,79.83
2023-03-21T07:56:16.845Z,80.68
2023-03-21T07:58:43.359Z,77.99
2023-03-21T08:01:09.904Z,79.39
2023-03-21T08:03:36.548Z,75.27
2023-03-21T08:06:03.169Z,74.30
2023-03-21T08:08:29.767Z,74.35
2023-03-21T08:10:56.326Z,75.39
2023-03-21T08:13:23.098Z,74.75
2023-03-21T08:15:49.661Z,77.56
2023-03-21T08:18:16.198Z,75.43
2023-03-21T08:20:42.754Z,75.31
2023-03-21T08:23:09.289Z,74.75
2023-03-21T08:25:36.884Z,74.03
2023-03-21T08:28:03.784Z,74.33
2023-03-21T08:30:30.635Z,74.99
2023-03-21T08:33:01.766Z,73.64
2023-03-21T08:35:29.354Z,73.08
2023-03-21T08:37:55.900Z,70.57
2023-03-21T08:40:22.418Z,64.56
2023-03-21T08:42:49.082Z,58.24
2023-03-21T08:45:16.830Z,59.77
2023-03-21T08:47:43.789Z,55.83
2023-03-21T08:50:12.022Z,55.28
2023-03-21T08:52:38.566Z,55.02
2023-03-21T08:55:05.210Z,53.56
2023-03-21T08:57:31.746Z,52.57
2023-03-21T08:59:58.273Z,52.31
2023-03-21T09:02:24.776Z,52.98
2023-03-21T09:04:54.944Z,49.21
2023-03-21T09:07:22.232Z,46.66
2023-03-21T09:09:58.054Z,47.32
2023-03-21T09:12:29.772Z,47.79
2023-03-21T09:14:56.347Z,48.75
2023-03-21T09:17:22.881Z,48.55
2023-03-21T09:19:50.895Z,48.20
2023-03-21T09:22:18.070Z,47.07
2023-03-21T09:24:47.820Z,47.79
2023-03-21T09:27:15.822Z,47.21
2023-03-21T09:29:44.675Z,47.83
2023-03-21T09:32:12.232Z,49.09
2023-03-21T09:34:41.405Z,48.60
2023-03-21T09:37:13.412Z,50.73
2023-03-21T09:39:41.049Z,46.73
2023-03-21T09:42:17.949Z,48.05
2023-03-21T09:44:53.754Z,46.75
2023-03-21T09:47:22.202Z,46.97
2023-03-21T09:50:17.309Z,47.02
2023-03-21T09:52:43.925Z,46.31
2023-03-21T09:55:19.044Z,46.00
2023-03-21T09:57:47.803Z,46.60
2023-03-21T10:00:25.798Z,47.40
2023-03-21T10:02:57.234Z,45.66
2023-03-21T10:05:25.850Z,45.71
2023-03-21T10:08:11.072Z,45.98
2023-03-21T10:10:41.758Z,45.23
2023-03-21T10:13:14.028Z,43.60
2023-03-21T10:15:40.943Z,47.17
2023-03-21T10:18:08.579Z,44.92
2023-03-21T10:20:36.364Z,43.62
2023-03-21T10:23:07.809Z,42.81
2023-03-21T10:25:36.576Z,43.44
2023-03-21T10:28:06.651Z,43.37
2023-03-21T10:30:36.678Z,43.59
2023-03-21T10:33:05.711Z,43.90
2023-03-21T10:35:34.096Z,45.16
2023-03-21T10:38:01.675Z,44.28
2023-03-21T10:40:28.438Z,44.63
2023-03-21T10:42:55.727Z,43.00
2023-03-21T10:45:22.812Z,42.79
2023-03-21T10:47:50.595Z,43.07
2023-03-21T10:50:20.483Z,43.64
2023-03-21T10:52:49.844Z,43.96
2023-03-21T10:55:28.869Z,43.83
2023-03-21T10:57:58.792Z,43.48
2023-03-21T11:00:27.460Z,43.10
2023-03-21T11:02:54.492Z,43.82
2023-03-21T11:05:34.154Z,44.05
2023-03-21T11:08:03.040Z,42.46
2023-03-21T11:10:34.499Z,42.39
2023-03-21T11:13:06.754Z,41.92
2023-03-21T11:15:33.290Z,41.27
2023-03-21T11:18:00.709Z,40.76
2023-03-21T11:20:30.919Z,40.42
2023-03-21T11:22:57.562Z,40.20
2023-03-21T11:25:37.285Z,38.59
2023-03-21T11:28:09.533Z,39.21
2023-03-21T11:30:36.114Z,39.46
2023-03-21T11:33:06.392Z,38.59
2023-03-21T11:35:34.874Z,39.10
2023-03-21T11:38:01.392Z,39.90
2023-03-21T11:40:29.246Z,41.94
2023-03-21T11:42:56.645Z,41.37
2023-03-21T11:45:30.598Z,42.09
2023-03-21T11:48:01.223Z,41.62
2023-03-21T11:50:30.783Z,40.57
2023-03-21T11:52:57.266Z,40.04
2023-03-21T11:55:47.075Z,40.68
2023-03-21T11:58:26.514Z,40.43
2023-03-21T12:01:02.278Z,40.35
2023-03-21T12:03:48.584Z,40.86
2023-03-21T12:06:28.578Z,39.08
2023-03-21T12:09:04.084Z,40.34
2023-03-21T12:11:45.906Z,39.43
2023-03-21T12:14:45.000Z,40.48
2023-03-21T12:17:37.883Z,40.98
2023-03-21T12:20:16.362Z,41.09
2023-03-21T12:22:52.433Z,41.61
2023-03-21T12:25:24.677Z,41.43
2023-03-21T12:27:53.982Z,41.72
2023-03-21T12:30:24.317Z,42.31
2023-03-21T12:33:09.404Z,43.60
2023-03-21T12:35:54.005Z,42.46
2023-03-21T12:38:20.494Z,43.39
2023-03-21T12:41:16.151Z,41.64
2023-03-21T12:43:48.430Z,41.97
2023-03-21T12:46:19.400Z,41.00
2023-03-21T12:48:47.523Z,42.82
2023-03-21T12:51:19.903Z,41.78
2023-03-21T12:54:08.000Z,42.86
2023-03-21T12:56:34.488Z,42.66
2023-03-21T12:59:23.054Z,42.18
2023-03-21T13:01:53.276Z,41.84
2023-03-21T13:04:35.617Z,40.73
2023-03-21T13:07:04.514Z,40.96
2023-03-21T13:09:37.892Z,42.94
2023-03-21T13:12:21.133Z,41.71
2023-03-21T13:14:56.676Z,41.48
2023-03-21T13:17:28.061Z,42.39
2023-03-21T13:19:58.682Z,41.44
2023-03-21T13:22:27.763Z,42.48
2023-03-21T13:25:05.829Z,40.63
2023-03-21T13:27:32.325Z,41.59
2023-03-21T13:30:07.569Z,40.68
2023-03-21T13:32:34.228Z,40.59
2023-03-21T13:35:18.430Z,41.15
2023-03-21T13:37:53.201Z,41.27
2023-03-21T13:40:35.385Z,41.90
2023-03-21T13:43:03.767Z,42.11
2023-03-21T13:45:44.820Z,41.35
2023-03-21T13:48:29.735Z,43.09
2023-03-21T13:51:05.834Z,42.96
2023-03-21T13:53:33.747Z,42.80
2023-03-21T13:56:21.006Z,42.75
2023-03-21T13:58:47.570Z,42.45
2023-03-21T14:01:32.787Z,43.17
2023-03-21T14:04:11.291Z,42.53
2023-03-21T14:06:58.672Z,41.95
2023-03-21T14:09:29.217Z,43.72
2023-03-21T14:12:03.720Z,42.22
2023-03-21T14:14:37.571Z,42.25
2023-03-21T14:17:11.789Z,43.68
2023-03-21T14:19:38.859Z,42.64
2023-03-21T14:22:10.277Z,42.16
2023-03-21T14:24:36.776Z,42.50
2023-03-21T14:27:05.616Z,42.48
2023-03-21T14:29:35.485Z,42.71
2023-03-21T14:32:02.473Z,42.89
2023-03-21T14:34:31.266Z,42.77
2023-03-21T14:36:58.942Z,41.50
2023-03-21T14:39:32.638Z,42.17
2023-03-21T14:42:06.436Z,41.55
2023-03-21T14:44:58.371Z,42.20
2023-03-21T14:47:29.021Z,41.06
2023-03-21T14:49:56.535Z,41.43
2023-03-21T14:52:22.994Z,41.74
2023-03-21T14:54:50.196Z,42.42
2023-03-21T14:57:31.081Z,42.77
2023-03-21T15:00:00.737Z,42.77
2023-03-21T15:02:29.338Z,43.63
2023-03-21T15:04:57.642Z,42.65
2023-03-21T15:07:29.413Z,42.98
2023-03-21T15:09:57.822Z,42.71
2023-03-21T15:12:24.371Z,42.78
2023-03-21T15:14:50.917Z,43.04
2023-03-21T15:17:17.678Z,43.62
2023-03-21T15:19:44.288Z,42.75
2023-03-21T15:22:16.869Z,43.88
2023-03-21T15:24:45.700Z,43.50
2023-03-21T15:27:17.530Z,43.45
2023-03-21T15:29:44.314Z,44.09
2023-03-21T15:32:16.294Z,43.37
2023-03-21T15:34:43.382Z,43.75
2023-03-21T15:37:17.166Z,43.96
2023-03-21T15:39:44.182Z,43.61
2023-03-21T15:42:24.121Z,43.72
2023-03-21T15:44:53.275Z,45.13
2023-03-21T15:47:38.454Z,44.52
2023-03-21T15:50:24.809Z,43.99
2023-03-21T15:52:52.333Z,43.44
2023-03-21T15:55:22.394Z,44.22
2023-03-21T15:57:50.149Z,44.65
2023-03-21T16:00:18.478Z,44.11
2023-03-21T16:02:45.717Z,44.99
2023-03-21T16:05:24.470Z,45.15
2023-03-21T16:07:51.150Z,45.43
2023-03-21T16:10:28.651Z,44.67
2023-03-21T16:12:55.494Z,45.46
2023-03-21T16:15:22.948Z,47.92
2023-03-21T16:18:03.613Z,47.80
2023-03-21T16:20:40.525Z,49.21
2023-03-21T16:23:12.295Z,48.94
2023-03-21T16:25:39.062Z,50.47
2023-03-21T16:28:10.703Z,50.16
2023-03-21T16:30:38.733Z,50.58
2023-03-21T16:33:05.426Z,51.01
2023-03-21T16:35:31.930Z,52.43
2023-03-21T16:37:58.496Z,53.45
2023-03-21T16:40:30.342Z,54.23
2023-03-21T16:42:56.888Z,54.56
2023-03-21T16:45:23.690Z,55.12
2023-03-21T16:47:50.353Z,56.65
2023-03-21T16:50:27.912Z,57.36
2023-03-21T16:52:55.415Z,58.27
2023-03-21T16:55:22.272Z,58.24
2023-03-21T16:57:50.191Z,58.71
2023-03-21T17:00:20.710Z,58.80
2023-03-21T17:02:48.132Z,59.26
2023-03-21T17:05:14.870Z,59.54
2023-03-21T17:07:41.936Z,61.34
2023-03-21T17:10:27.503Z,61.82
2023-03-21T17:12:54.213Z,61.03
2023-03-21T17:15:21.382Z,63.23
2023-03-21T17:17:50.134Z,63.71
2023-03-21T17:20:21.446Z,63.43
2023-03-21T17:22:48.803Z,62.86
2023-03-21T17:25:16.518Z,62.95
2023-03-21T17:27:43.069Z,63.78
2023-03-21T17:30:28.856Z,65.11
2023-03-21T17:32:55.452Z,66.15
2023-03-21T17:35:22.958Z,67.42
2023-03-21T17:37:52.756Z,67.34
2023-03-21T17:40:24.313Z,67.10
2023-03-21T17:42:51.675Z,67.73
2023-03-21T17:45:18.675Z,67.80
2023-03-21T17:47:45.977Z,68.74
2023-03-21T17:50:23.725Z,68.26
2023-03-21T17:52:50.872Z,68.50
2023-03-21T17:55:19.636Z,71.58
2023-03-21T17:57:46.782Z,70.62
2023-03-21T18:00:18.404Z,70.51
2023-03-21T18:02:44.981Z,71.32
2023-03-21T18:05:11.662Z,71.03
2023-03-21T18:08:07.855Z,71.26
2023-03-21T18:10:26.485Z,72.33
2023-03-21T18:12:55.985Z,72.47
2023-03-21T18:15:24.278Z,72.15
2023-03-21T18:17:51.590Z,71.79
2023-03-21T18:20:21.060Z,72.08
2023-03-21T18:22:48.094Z,72.52
2023-03-21T18:25:15.528Z,72.73
2023-03-21T18:28:06.845Z,73.03
2023-03-21T18:30:47.686Z,73.77
2023-03-21T18:33:15.501Z,74.05
2023-03-21T18:35:42.131Z,73.99
2023-03-21T18:38:08.701Z,74.62
2023-03-21T18:40:35.203Z,74.88
2023-03-21T18:43:59.365Z,75.67
2023-03-21T18:45:48.329Z,76.32
2023-03-21T18:48:14.877Z,76.24
2023-03-21T18:50:41.778Z,76.90
2023-03-21T18:53:09.394Z,77.74
2023-03-21T18:55:45.828Z,78.97
2023-03-21T18:58:13.126Z,78.60
2023-03-21T19:00:40.484Z,79.59
2023-03-21T19:03:19.278Z,79.39
2023-03-21T19:05:51.245Z,80.83
2023-03-21T19:08:17.754Z,81.44
2023-03-21T19:10:45.313Z,81.70
2023-03-21T19:13:12.426Z,82.95
2023-03-21T19:15:41.366Z,83.33
2023-03-21T19:18:41.502Z,82.84
2023-03-21T19:20:54.739Z,82.93
2023-03-21T19:23:21.653Z,82.64
2023-03-21T19:25:48.204Z,82.83
2023-03-21T19:29:43.300Z,83.93
2023-03-21T19:32:09.847Z,84.31
2023-03-21T19:34:36.874Z,85.47
2023-03-21T19:37:03.549Z,85.71
2023-03-21T19:39:30.357Z,85.16
2023-03-21T19:42:14.760Z,85.22
2023-03-21T19:44:42.036Z,86.36
2023-03-21T19:47:09.026Z,86.66
2023-03-21T19:50:11.737Z,85.77
2023-03-21T19:52:22.458Z,85.60
2023-03-21T19:54:49.036Z,85.57
2023-03-21T19:57:16.395Z,86.06
2023-03-21T19:59:42.949Z,87.81
2023-03-21T20:02:33.961Z,87.99
2023-03-21T20:04:57.711Z,89.66
2023-03-21T20:07:24.246Z,89.39
2023-03-21T20:09:53.811Z,88.62
2023-03-21T20:12:23.172Z,88.64
2023-03-21T20:14:57.965Z,88.79
2023-03-21T20:17:31.813Z,90.10
